createdAt,value
2022-10-26T00:02:03.421Z,8.27
2022-10-26T00:07:05.091Z,8.57
2022-10-26T00:12:06.852Z,7.20
2022-10-26T00:17:08.505Z,8.07
2022-10-26T00:22:10.079Z,7.72
2022-10-26T00:27:11.679Z,9.65
2022-10-26T00:32:13.277Z,9.57
2022-10-26T00:37:14.823Z,10.63
2022-10-26T00:42:19.509Z,8.75
2022-10-26T00:47:41.979Z,9.50
2022-10-26T00:52:43.708Z,9.57
2022-10-26T00:57:45.296Z,9.20
2022-10-26T01:02:50.004Z,11.25
2022-10-26T01:07:52.205Z,9.40
2022-10-26T01:12:57.141Z,10.25
2022-10-26T01:18:11.705Z,7.95
2022-10-26T01:23:34.136Z,7.10
2022-10-26T01:29:04.067Z,6.97
2022-10-26T01:34:23.786Z,6.10
2022-10-26T01:39:38.023Z,6.68
2022-10-26T01:44:44.435Z,6.47
2022-10-26T01:49:50.891Z,5.80
2022-10-26T01:54:52.427Z,5.68
2022-10-26T02:00:12.199Z,5.70
2022-10-26T02:05:44.699Z,5.80
2022-10-26T02:10:49.125Z,6.22
2022-10-26T02:15:56.704Z,12.18
2022-10-26T02:21:05.537Z,7.50
2022-10-26T02:26:10.606Z,7.38
2022-10-26T02:31:15.683Z,6.80
2022-10-26T02:36:23.885Z,6.50
2022-10-26T02:41:28.358Z,6.75
2022-10-26T02:46:30.025Z,6.18
2022-10-26T02:51:40.646Z,5.78
2022-10-26T02:57:00.430Z,6.25
2022-10-26T03:02:03.565Z,5.53
2022-10-26T03:07:05.095Z,5.63
2022-10-26T03:12:06.726Z,5.53
2022-10-26T03:17:08.367Z,5.57
2022-10-26T03:22:09.906Z,5.57
2022-10-26T03:27:11.478Z,6.03
2022-10-26T03:32:13.006Z,5.25
2022-10-26T03:37:14.640Z,5.18
2022-10-26T03:42:16.278Z,5.13
2022-10-26T03:47:17.791Z,5.47
2022-10-26T03:52:19.399Z,5.10
2022-10-26T03:57:20.930Z,5.55
2022-10-26T04:02:22.471Z,5.35
2022-10-26T04:07:24.077Z,5.30
2022-10-26T04:12:25.622Z,5.05
2022-10-26T04:17:27.192Z,5.05
2022-10-26T04:22:28.757Z,4.90
2022-10-26T04:27:30.368Z,5.25
2022-10-26T04:32:31.889Z,4.00
2022-10-26T04:37:34.071Z,4.50
2022-10-26T04:42:46.302Z,4.68
2022-10-26T04:47:48.075Z,4.60
2022-10-26T04:52:51.325Z,4.40
2022-10-26T04:57:55.955Z,4.78
2022-10-26T05:03:01.131Z,4.97
2022-10-26T05:08:03.234Z,4.47
2022-10-26T05:13:04.946Z,5.20
2022-10-26T05:18:06.563Z,5.38
2022-10-26T05:23:11.019Z,5.32
2022-10-26T05:28:13.904Z,4.93
2022-10-26T05:33:15.684Z,5.60
2022-10-26T05:38:18.203Z,5.88
2022-10-26T05:43:21.716Z,5.72
2022-10-26T05:48:23.270Z,5.28
2022-10-26T05:53:24.811Z,5.45
2022-10-26T05:58:26.757Z,5.97
2022-10-26T06:03:43.575Z,6.40
2022-10-26T06:08:45.465Z,7.38
2022-10-26T06:13:47.344Z,8.85
2022-10-26T06:18:58.237Z,10.07
2022-10-26T06:24:40.990Z,9.80
2022-10-26T06:29:50.026Z,10.02
2022-10-26T06:34:57.359Z,10.63
2022-10-26T06:39:59.627Z,11.93
2022-10-26T06:45:01.587Z,11.63
2022-10-26T06:50:25.068Z,11.65
2022-10-26T06:55:28.026Z,11.73
2022-10-26T07:05:34.038Z,14.63
2022-10-26T07:10:38.827Z,12.10
2022-10-26T07:15:41.146Z,11.57
2022-10-26T07:20:42.917Z,11.30
2022-10-26T07:25:44.565Z,12.13
2022-10-26T07:30:46.113Z,12.45
2022-10-26T07:35:47.625Z,15.20
2022-10-26T07:40:50.499Z,15.25
2022-10-26T07:45:52.169Z,15.13
2022-10-26T07:50:53.787Z,13.43
2022-10-26T07:55:57.085Z,12.00
2022-10-26T08:01:07.891Z,9.75
2022-10-26T08:06:10.564Z,10.27
2022-10-26T08:11:12.153Z,9.95
2022-10-26T08:16:13.937Z,8.90
2022-10-26T08:21:21.792Z,10.70
2022-10-26T08:26:31.959Z,10.82
2022-10-26T08:31:33.795Z,8.98
2022-10-26T08:36:35.343Z,7.72
2022-10-26T08:41:41.467Z,6.68
2022-10-26T08:46:46.804Z,7.30
2022-10-26T08:51:51.969Z,7.20
2022-10-26T08:56:58.578Z,6.80
2022-10-26T09:02:02.651Z,6.75
2022-10-26T09:07:41.288Z,6.30
2022-10-26T09:12:58.203Z,5.78
2022-10-26T09:18:17.823Z,5.70
2022-10-26T09:23:47.406Z,5.80
2022-10-26T09:28:49.714Z,5.70
2022-10-26T09:33:53.225Z,6.30
2022-10-26T09:39:21.540Z,4.53
2022-10-26T09:44:38.360Z,5.72
2022-10-26T09:49:48.724Z,6.95
2022-10-26T09:54:50.408Z,6.18
2022-10-26T09:59:52.637Z,5.45
2022-10-26T10:04:54.273Z,6.00
2022-10-26T10:10:16.380Z,6.53
2022-10-26T10:15:21.353Z,7.20
2022-10-26T10:20:32.493Z,6.85
2022-10-26T10:25:36.853Z,8.45
2022-10-26T10:30:38.742Z,7.63
2022-10-26T10:35:49.780Z,8.13
2022-10-26T10:41:03.819Z,7.63
2022-10-26T10:46:05.523Z,7.03
2022-10-26T10:51:12.965Z,8.13
2022-10-26T10:56:26.410Z,7.63
2022-10-26T11:01:38.609Z,7.25
2022-10-26T11:06:42.544Z,7.50
2022-10-26T11:11:51.851Z,7.43
2022-10-26T11:17:17.733Z,7.70
2022-10-26T11:22:24.147Z,7.40
2022-10-26T11:27:45.926Z,7.10
2022-10-26T11:32:57.027Z,6.45
2022-10-26T11:38:08.364Z,7.03
2022-10-26T11:43:32.601Z,7.43
2022-10-26T11:48:54.480Z,7.32
2022-10-26T11:54:02.084Z,6.55
2022-10-26T11:59:04.756Z,7.38
2022-10-26T12:04:07.085Z,7.55
2022-10-26T12:09:16.973Z,8.25
2022-10-26T12:14:33.863Z,7.80
2022-10-26T12:20:28.074Z,7.88
2022-10-26T12:25:29.681Z,8.10
2022-10-26T12:30:33.491Z,7.95
2022-10-26T12:35:36.599Z,8.80
2022-10-26T12:40:41.166Z,8.50
2022-10-26T12:45:44.494Z,9.00
2022-10-26T12:50:46.395Z,9.13
2022-10-26T12:56:02.247Z,9.00
2022-10-26T13:01:04.109Z,8.50
2022-10-26T13:06:09.757Z,8.65
2022-10-26T13:11:32.054Z,7.22
2022-10-26T13:16:34.519Z,6.97
2022-10-26T13:21:47.202Z,7.32
2022-10-26T13:27:08.036Z,6.53
2022-10-26T13:32:09.719Z,6.45
2022-10-26T13:37:23.493Z,7.40
2022-10-26T13:48:01.544Z,7.07
2022-10-26T13:53:29.783Z,7.35
2022-10-26T13:58:33.855Z,7.50
2022-10-26T14:03:35.770Z,7.93
2022-10-26T14:08:40.630Z,7.57
2022-10-26T14:13:42.910Z,7.20
2022-10-26T14:18:45.592Z,7.00
2022-10-26T14:23:51.796Z,6.93
2022-10-26T14:28:56.776Z,6.32
2022-10-26T14:34:01.543Z,7.00
2022-10-26T14:39:12.769Z,6.55
2022-10-26T14:44:19.486Z,6.53
2022-10-26T14:49:27.181Z,6.90
2022-10-26T14:54:30.031Z,7.47
2022-10-26T14:59:32.095Z,7.53
2022-10-26T15:04:41.773Z,6.75
2022-10-26T15:09:45.771Z,7.40
2022-10-26T15:14:48.587Z,7.10
2022-10-26T15:19:52.072Z,8.07
2022-10-26T15:24:59.643Z,8.25
2022-10-26T15:30:28.179Z,7.47
2022-10-26T15:35:31.893Z,7.47
2022-10-26T15:40:33.539Z,7.93
2022-10-26T15:45:37.789Z,7.05
2022-10-26T15:50:41.290Z,6.43
2022-10-26T15:55:43.032Z,5.75
2022-10-26T16:00:44.930Z,6.10
2022-10-26T16:05:46.708Z,6.05
2022-10-26T16:10:48.318Z,6.18
2022-10-26T16:15:49.894Z,5.78
2022-10-26T16:20:51.448Z,6.13
2022-10-26T16:25:53.008Z,6.57
2022-10-26T16:30:59.602Z,6.07
2022-10-26T16:36:02.002Z,5.88
2022-10-26T16:41:12.637Z,6.10
2022-10-26T16:46:16.695Z,7.68
2022-10-26T16:51:19.330Z,8.70
2022-10-26T16:56:23.496Z,8.98
2022-10-26T17:01:25.691Z,12.50
2022-10-26T17:06:27.394Z,11.68
2022-10-26T17:11:28.983Z,10.25
2022-10-26T17:16:30.674Z,10.20
2022-10-26T17:21:35.935Z,12.57
2022-10-26T17:26:37.696Z,11.88
2022-10-26T17:31:40.258Z,11.05
2022-10-26T17:36:42.027Z,10.60
2022-10-26T17:41:43.677Z,8.98
2022-10-26T17:46:45.528Z,10.43
2022-10-26T17:51:47.129Z,20.77
2022-10-26T17:56:48.711Z,21.63
2022-10-26T18:01:50.381Z,17.88
2022-10-26T18:06:52.166Z,14.02
2022-10-26T18:11:55.828Z,10.70
2022-10-26T18:16:57.769Z,15.90
2022-10-26T18:22:00.504Z,34.70
2022-10-26T18:27:02.133Z,31.80
2022-10-26T18:32:03.956Z,21.20
2022-10-26T18:37:05.523Z,18.15
2022-10-26T18:42:07.126Z,18.42
2022-10-26T18:47:08.672Z,19.67
2022-10-26T18:52:10.359Z,21.10
2022-10-26T18:57:11.975Z,21.02
2022-10-26T19:02:14.691Z,16.05
2022-10-26T19:07:16.362Z,15.07
2022-10-26T19:12:17.940Z,14.93
2022-10-26T19:17:19.954Z,15.73
2022-10-26T19:22:21.646Z,15.90
2022-10-26T19:27:23.231Z,15.55
2022-10-26T19:32:28.333Z,15.15
2022-10-26T19:37:30.610Z,14.55
2022-10-26T19:42:32.244Z,14.48
2022-10-26T19:47:33.819Z,14.32
2022-10-26T19:52:36.525Z,15.30
2022-10-26T19:57:38.195Z,15.68
2022-10-26T20:02:39.920Z,15.50
2022-10-26T20:07:41.527Z,17.85
2022-10-26T20:12:43.085Z,16.85
2022-10-26T20:17:44.702Z,17.25
2022-10-26T20:22:46.259Z,16.73
2022-10-26T20:27:48.332Z,17.40
2022-10-26T20:32:50.180Z,17.40
2022-10-26T20:37:52.987Z,18.35
2022-10-26T20:42:55.694Z,16.75
2022-10-26T20:47:58.803Z,18.20
2022-10-26T20:53:11.573Z,19.40
2022-10-26T20:58:32.043Z,17.15
2022-10-26T21:03:33.692Z,15.75
2022-10-26T21:08:35.237Z,15.48
2022-10-26T21:13:36.924Z,15.38
2022-10-26T21:18:38.940Z,15.07
2022-10-26T21:23:41.293Z,15.30
2022-10-26T21:28:45.906Z,14.52
2022-10-26T21:33:48.170Z,14.05
2022-10-26T21:38:49.812Z,13.75
2022-10-26T21:44:03.193Z,13.57
2022-10-26T21:49:10.668Z,13.70
2022-10-26T21:54:12.234Z,12.30
2022-10-26T21:59:13.817Z,12.98
2022-10-26T22:04:15.381Z,12.73
2022-10-26T22:09:17.325Z,12.50
2022-10-26T22:14:19.221Z,13.65
2022-10-26T22:19:20.898Z,13.25
2022-10-26T22:24:22.508Z,11.85
2022-10-26T22:29:24.070Z,12.15
2022-10-26T22:34:25.706Z,13.10
2022-10-26T22:39:27.260Z,11.93
2022-10-26T22:44:28.913Z,12.38
2022-10-26T22:49:30.529Z,11.75
2022-10-26T22:54:32.125Z,10.90
2022-10-26T22:59:33.695Z,10.52
2022-10-26T23:04:35.285Z,10.65
2022-10-26T23:09:36.862Z,11.15
2022-10-26T23:14:38.426Z,10.63
2022-10-26T23:19:40.165Z,10.90
2022-10-26T23:24:41.928Z,11.50
2022-10-26T23:34:46.430Z,11.10
2022-10-26T23:39:48.167Z,12.57
2022-10-26T23:44:49.917Z,11.10
2022-10-26T23:49:51.734Z,12.38
2022-10-26T23:54:53.502Z,15.65
2022-10-26T23:59:55.255Z,14.20
